Time;durP1;ratioP1;P1;durP2;ratioP2;P2;SDS_P1;SDS_P2;PMS_P1;PMS_P2;Temp;Humidity;BMP_temperature;BMP_pressure;BME280_temperature;BME280_humidity;BME280_pressure;Samples;Min_cycle;Max_cycle;Signal;HPM_P1;HPM_P2
2022/06/20 00:00:48;;;;;;;6.60;1.67;;;;;;;;;;5023796;28;20041;-73
2022/06/20 00:03:21;;;;;;;7.00;1.90;;;;;;;;;;5024347;28;20503;-73
2022/06/20 00:05:47;;;;;;;8.68;2.00;;;;;;;;;;5023975;28;20052;-73
2022/06/20 00:08:14;;;;;;;10.18;2.10;;;;;;;;;;5023042;28;20073;-73
2022/06/20 00:10:42;;;;;;;6.18;1.70;;;;;;;;;;5021044;28;20040;-72
2022/06/20 00:13:10;;;;;;;7.97;1.88;;;;;;;;;;5024257;28;20064;-72
2022/06/20 00:15:36;;;;;;;5.68;1.52;;;;;;;;;;5024431;28;20065;-72
2022/06/20 00:18:05;;;;;;;10.77;2.10;;;;;;;;;;5022851;28;20040;-73
2022/06/20 00:20:31;;;;;;;7.07;2.28;;;;;;;;;;5020648;28;20427;-72
2022/06/20 00:22:57;;;;;;;11.32;2.00;;;;;;;;;;5024196;28;20056;-72
2022/06/20 00:25:24;;;;;;;8.98;2.22;;;;;;;;;;5005300;28;20041;-73
2022/06/20 00:27:51;;;;;;;9.02;2.05;;;;;;;;;;5022280;28;20096;-73
2022/06/20 00:30:18;;;;;;;7.10;2.10;;;;;;;;;;5019770;28;20041;-73
2022/06/20 00:32:44;;;;;;;7.43;2.10;;;;;;;;;;4999725;28;20092;-73
2022/06/20 00:35:11;;;;;;;7.15;1.85;;;;;;;;;;5020454;28;20053;-73
2022/06/20 00:37:37;;;;;;;8.18;2.05;;;;;;;;;;5019297;28;20064;-73
2022/06/20 00:40:20;;;;;;;9.02;2.15;;;;;;;;;;5025192;28;20037;-73
2022/06/20 00:42:46;;;;;;;7.70;2.35;;;;;;;;;;5022424;28;20511;-73
2022/06/20 00:45:13;;;;;;;8.90;2.05;;;;;;;;;;5023812;28;20043;-73
2022/06/20 00:47:40;;;;;;;10.10;1.92;;;;;;;;;;5022711;28;20566;-73
2022/06/20 00:50:10;;;;;;;12.57;2.22;;;;;;;;;;5023429;28;20395;-73
2022/06/20 00:52:39;;;;;;;5.93;2.00;;;;;;;;;;5023728;28;20095;-73
2022/06/20 00:55:24;;;;;;;7.45;2.15;;;;;;;;;;5022813;28;20041;-73
2022/06/20 00:57:53;;;;;;;7.72;2.13;;;;;;;;;;5023739;28;21018;-72
2022/06/20 01:00:22;;;;;;;6.75;1.92;;;;;;;;;;5020589;28;20495;-72
2022/06/20 01:02:49;;;;;;;7.55;1.92;;;;;;;;;;5022869;28;20053;-72
2022/06/20 01:05:18;;;;;;;6.15;2.03;;;;;;;;;;5019581;28;20052;-73
2022/06/20 01:07:49;;;;;;;5.38;2.10;;;;;;;;;;5023252;28;20663;-73
2022/06/20 01:10:16;;;;;;;9.23;2.28;;;;;;;;;;5020867;28;20567;-72
2022/06/20 01:12:48;;;;;;;9.75;2.20;;;;;;;;;;5019436;28;20044;-73
2022/06/20 01:15:16;;;;;;;11.90;2.17;;;;;;;;;;5021172;28;20068;-73
2022/06/20 01:17:42;;;;;;;8.05;1.90;;;;;;;;;;5022415;28;20582;-73
2022/06/20 01:20:17;;;;;;;9.63;2.35;;;;;;;;;;5024394;28;20033;-73
2022/06/20 01:23:03;;;;;;;9.07;2.25;;;;;;;;;;5019243;28;20042;-73
2022/06/20 01:25:38;;;;;;;7.70;2.00;;;;;;;;;;5023027;28;20036;-72
2022/06/20 01:28:08;;;;;;;9.35;2.08;;;;;;;;;;5021232;28;20041;-72
2022/06/20 01:30:35;;;;;;;11.10;2.03;;;;;;;;;;5021290;28;20056;-73
2022/06/20 01:33:01;;;;;;;6.25;2.10;;;;;;;;;;5023077;28;20045;-74
2022/06/20 01:38:13;;;;;;;11.90;2.70;;;;;;;;;;5022086;28;20590;-72
2022/06/20 01:42:18;;;;;;;7.97;2.50;;;;;;;;;;5004550;28;20424;-73
2022/06/20 01:43:28;;;;;;;8.65;2.17;;;;;;;;;;5023117;28;20559;-72
2022/06/20 01:45:58;;;;;;;9.93;2.08;;;;;;;;;;5022150;28;20488;-73
2022/06/20 01:48:24;;;;;;;7.75;2.00;;;;;;;;;;5025855;28;20072;-73
2022/06/20 01:50:50;;;;;;;11.98;2.00;;;;;;;;;;5023166;28;20668;-73
2022/06/20 01:53:19;;;;;;;7.47;2.15;;;;;;;;;;5022433;28;20776;-72
2022/06/20 01:55:47;;;;;;;11.57;2.20;;;;;;;;;;5022246;28;20041;-73
2022/06/20 01:58:29;;;;;;;8.50;2.65;;;;;;;;;;5020615;28;20511;-72
2022/06/20 02:00:56;;;;;;;8.82;2.25;;;;;;;;;;5022187;28;20041;-73
2022/06/20 02:03:23;;;;;;;8.02;2.53;;;;;;;;;;5022172;28;20700;-72
2022/06/20 02:05:50;;;;;;;8.02;2.40;;;;;;;;;;5021840;28;20521;-72
2022/06/20 02:08:18;;;;;;;7.93;2.00;;;;;;;;;;5005364;28;20533;-73
2022/06/20 02:10:57;;;;;;;6.88;2.10;;;;;;;;;;5021357;28;20554;-72
2022/06/20 02:13:24;;;;;;;6.35;2.20;;;;;;;;;;5019677;28;20148;-73
2022/06/20 02:15:52;;;;;;;5.18;2.03;;;;;;;;;;5023628;28;20036;-73
2022/06/20 02:18:18;;;;;;;8.25;2.22;;;;;;;;;;5022307;28;20140;-73
2022/06/20 02:20:47;;;;;;;7.57;2.33;;;;;;;;;;5020565;28;20045;-73
2022/06/20 02:23:18;;;;;;;8.63;2.50;;;;;;;;;;5020226;28;20060;-73
2022/06/20 02:25:45;;;;;;;9.23;2.40;;;;;;;;;;5022349;28;20578;-73
2022/06/20 02:28:14;;;;;;;11.55;2.47;;;;;;;;;;5020329;28;20053;-71
2022/06/20 02:30:40;;;;;;;8.30;2.42;;;;;;;;;;5021006;28;20079;-73
2022/06/20 02:33:17;;;;;;;9.05;2.40;;;;;;;;;;5022335;28;20045;-73
2022/06/20 02:35:44;;;;;;;11.82;2.70;;;;;;;;;;5023520;28;20036;-73
2022/06/20 02:38:10;;;;;;;8.05;2.45;;;;;;;;;;5021186;28;20071;-73
2022/06/20 02:40:41;;;;;;;8.98;2.58;;;;;;;;;;5023709;28;20072;-72
2022/06/20 02:43:19;;;;;;;7.97;2.42;;;;;;;;;;5026748;28;20045;-73
2022/06/20 02:45:45;;;;;;;6.82;2.17;;;;;;;;;;5024761;28;20051;-72
2022/06/20 02:48:12;;;;;;;6.90;2.40;;;;;;;;;;5026785;28;20041;-72
2022/06/20 02:50:42;;;;;;;11.20;2.28;;;;;;;;;;5022564;28;20056;-72
2022/06/20 02:53:13;;;;;;;9.32;2.72;;;;;;;;;;5026468;28;20041;-72
2022/06/20 02:55:39;;;;;;;8.13;2.05;;;;;;;;;;5021953;28;20044;-73
2022/06/20 02:58:07;;;;;;;8.48;2.38;;;;;;;;;;5025817;28;20053;-73
2022/06/20 03:00:36;;;;;;;7.10;2.50;;;;;;;;;;5024032;28;20056;-73
2022/06/20 03:03:06;;;;;;;5.68;2.30;;;;;;;;;;5026133;28;20037;-73
2022/06/20 03:05:32;;;;;;;7.40;2.28;;;;;;;;;;5024192;28;20037;-72
2022/06/20 03:07:58;;;;;;;5.65;2.35;;;;;;;;;;5026051;28;20045;-73
2022/06/20 03:10:26;;;;;;;7.53;2.30;;;;;;;;;;5008069;28;20076;-73
2022/06/20 03:12:53;;;;;;;7.22;2.30;;;;;;;;;;5025407;28;20060;-73
2022/06/20 03:15:19;;;;;;;13.57;2.72;;;;;;;;;;5024796;28;20037;-72
2022/06/20 03:17:46;;;;;;;5.57;2.10;;;;;;;;;;5022171;28;20084;-71
2022/06/20 03:20:14;;;;;;;6.93;2.47;;;;;;;;;;5021884;28;20049;-73
2022/06/20 03:23:06;;;;;;;6.40;2.53;;;;;;;;;;5024874;28;20079;-73
2022/06/20 03:25:32;;;;;;;7.70;2.58;;;;;;;;;;5021163;28;20061;-72
2022/06/20 03:27:58;;;;;;;12.93;2.92;;;;;;;;;;5023675;28;20740;-73
2022/06/20 03:30:32;;;;;;;5.65;2.60;;;;;;;;;;5023258;28;20037;-73
2022/06/20 03:32:59;;;;;;;9.57;2.70;;;;;;;;;;5022753;28;20033;-72
2022/06/20 03:35:30;;;;;;;11.57;2.92;;;;;;;;;;5024425;28;20049;-71
2022/06/20 03:37:57;;;;;;;10.55;2.60;;;;;;;;;;5024703;28;20044;-72
2022/06/20 03:40:23;;;;;;;6.93;2.40;;;;;;;;;;5024652;28;20080;-73
2022/06/20 03:42:49;;;;;;;8.05;2.40;;;;;;;;;;5023551;28;20044;-72
2022/06/20 03:45:16;;;;;;;5.32;2.63;;;;;;;;;;5022970;28;20052;-72
2022/06/20 03:47:51;;;;;;;11.10;2.92;;;;;;;;;;5024311;28;20069;-73
2022/06/20 03:50:25;;;;;;;7.60;2.53;;;;;;;;;;5021883;28;20054;-73
2022/06/20 03:53:10;;;;;;;9.02;2.88;;;;;;;;;;5019261;28;20048;-73
2022/06/20 03:55:42;;;;;;;5.65;2.88;;;;;;;;;;5023813;28;20068;-72
2022/06/20 03:58:15;;;;;;;8.90;2.90;;;;;;;;;;5024570;28;20045;-73
2022/06/20 04:00:48;;;;;;;10.18;2.75;;;;;;;;;;5038967;28;20839;-73
2022/06/20 04:03:27;;;;;;;7.45;2.55;;;;;;;;;;5022335;28;20033;-72
2022/06/20 04:05:57;;;;;;;5.40;2.20;;;;;;;;;;5023934;28;20068;-73
2022/06/20 04:11:24;;;;;;;7.30;2.55;;;;;;;;;;5023516;28;20041;-73
2022/06/20 04:13:50;;;;;;;8.18;2.70;;;;;;;;;;5024768;28;20125;-73
2022/06/20 04:16:24;;;;;;;7.82;2.90;;;;;;;;;;5023006;28;20053;-73
2022/06/20 04:19:00;;;;;;;8.05;2.90;;;;;;;;;;5022861;28;20045;-73
2022/06/20 04:21:35;;;;;;;7.18;2.65;;;;;;;;;;5023288;28;20044;-72
2022/06/20 04:24:10;;;;;;;10.05;3.05;;;;;;;;;;5020703;28;20041;-73
2022/06/20 04:26:46;;;;;;;5.68;2.67;;;;;;;;;;5023300;28;20038;-72
2022/06/20 04:29:38;;;;;;;9.32;2.83;;;;;;;;;;5022579;28;20029;-73
2022/06/20 04:32:04;;;;;;;8.00;2.83;;;;;;;;;;5018152;28;20076;-73
2022/06/20 04:34:33;;;;;;;9.18;3.05;;;;;;;;;;5024888;28;20037;-73
2022/06/20 04:36:59;;;;;;;6.70;2.90;;;;;;;;;;5022762;28;20042;-73
2022/06/20 04:39:37;;;;;;;12.00;3.42;;;;;;;;;;5022266;28;20042;-73
2022/06/20 04:42:06;;;;;;;8.10;2.67;;;;;;;;;;5021266;28;20050;-72
2022/06/20 04:44:46;;;;;;;6.70;2.80;;;;;;;;;;5020715;28;20038;-73
2022/06/20 04:47:31;;;;;;;5.68;2.97;;;;;;;;;;5021734;28;20138;-73
2022/06/20 04:49:57;;;;;;;8.52;3.45;;;;;;;;;;5024497;28;20042;-72
2022/06/20 04:52:25;;;;;;;12.05;3.55;;;;;;;;;;5022963;28;20042;-73
2022/06/20 04:54:52;;;;;;;8.43;3.45;;;;;;;;;;5022933;28;20042;-73
2022/06/20 04:57:18;;;;;;;9.43;3.30;;;;;;;;;;5023371;28;20057;-73
2022/06/20 04:59:44;;;;;;;10.98;3.20;;;;;;;;;;5022674;28;20132;-73
2022/06/20 05:02:13;;;;;;;9.38;3.53;;;;;;;;;;5023376;28;20045;-72
2022/06/20 05:04:41;;;;;;;10.20;3.40;;;;;;;;;;5020150;28;20396;-73
2022/06/20 05:07:11;;;;;;;7.57;3.45;;;;;;;;;;5024020;28;20060;-73
2022/06/20 05:09:57;;;;;;;9.20;3.30;;;;;;;;;;5023295;28;20052;-73
2022/06/20 05:12:29;;;;;;;9.73;3.00;;;;;;;;;;5001998;28;20041;-72
2022/06/20 05:15:00;;;;;;;7.45;3.33;;;;;;;;;;5023420;28;20036;-72
2022/06/20 05:17:28;;;;;;;8.50;3.00;;;;;;;;;;5020532;28;20103;-73
2022/06/20 05:19:56;;;;;;;9.18;3.05;;;;;;;;;;5023128;28;20041;-71
2022/06/20 05:22:26;;;;;;;13.30;3.20;;;;;;;;;;5022293;28;20045;-72
2022/06/20 05:24:53;;;;;;;8.93;3.40;;;;;;;;;;5021597;28;20168;-73
2022/06/20 05:27:23;;;;;;;8.63;3.20;;;;;;;;;;5006736;28;20505;-72
2022/06/20 05:29:50;;;;;;;10.40;3.53;;;;;;;;;;5022430;28;20777;-72
2022/06/20 05:32:20;;;;;;;11.48;3.53;;;;;;;;;;5019564;28;20046;-73
2022/06/20 05:34:46;;;;;;;16.05;3.38;;;;;;;;;;5021259;28;20403;-73
2022/06/20 05:37:12;;;;;;;14.10;3.50;;;;;;;;;;5020381;28;20784;-72
2022/06/20 05:39:42;;;;;;;12.38;3.70;;;;;;;;;;5018107;28;20192;-73
2022/06/20 05:42:11;;;;;;;9.27;3.30;;;;;;;;;;5013869;28;20414;-72
2022/06/20 05:44:37;;;;;;;10.05;2.83;;;;;;;;;;5018134;28;20080;-72
2022/06/20 05:47:04;;;;;;;11.57;3.17;;;;;;;;;;5019239;28;20044;-74
2022/06/20 05:49:35;;;;;;;9.98;3.53;;;;;;;;;;5004132;28;20499;-73
2022/06/20 05:52:02;;;;;;;13.82;3.15;;;;;;;;;;5018882;28;20042;-73
2022/06/20 05:54:30;;;;;;;13.02;3.45;;;;;;;;;;5018975;28;20372;-72
2022/06/20 05:56:56;;;;;;;10.50;3.20;;;;;;;;;;5001943;28;20053;-72
2022/06/20 05:59:25;;;;;;;11.00;3.38;;;;;;;;;;5020691;28;20033;-73
2022/06/20 06:01:53;;;;;;;11.45;3.30;;;;;;;;;;5015786;28;20095;-73
2022/06/20 06:04:30;;;;;;;13.40;3.50;;;;;;;;;;5021569;28;20049;-74
2022/06/20 06:07:22;;;;;;;10.02;3.17;;;;;;;;;;5014724;28;20080;-73
2022/06/20 06:09:51;;;;;;;14.98;3.42;;;;;;;;;;5016588;28;20133;-73
2022/06/20 06:12:27;;;;;;;16.30;4.05;;;;;;;;;;5018802;28;20084;-73
2022/06/20 06:14:59;;;;;;;12.25;3.65;;;;;;;;;;5007209;28;20052;-72
2022/06/20 06:17:29;;;;;;;11.23;3.42;;;;;;;;;;5015092;28;20045;-74
2022/06/20 06:20:10;;;;;;;9.77;3.53;;;;;;;;;;5019976;28;20095;-73
2022/06/20 06:22:43;;;;;;;12.43;2.92;;;;;;;;;;5032565;28;20056;-73
2022/06/20 06:25:19;;;;;;;13.20;3.80;;;;;;;;;;5007334;28;20091;-72
2022/06/20 06:27:46;;;;;;;14.73;3.28;;;;;;;;;;5020525;28;20042;-73
2022/06/20 06:30:20;;;;;;;10.23;3.35;;;;;;;;;;5021743;28;20488;-73
2022/06/20 06:32:50;;;;;;;9.77;3.30;;;;;;;;;;5021467;28;20548;-72
2022/06/20 06:35:21;;;;;;;11.75;3.35;;;;;;;;;;5023089;28;20491;-72
2022/06/20 06:37:51;;;;;;;11.48;3.17;;;;;;;;;;5020749;28;20064;-72
2022/06/20 06:40:26;;;;;;;10.75;3.53;;;;;;;;;;5006445;28;20136;-73
2022/06/20 06:42:55;;;;;;;11.82;3.58;;;;;;;;;;5016390;28;20510;-73
2022/06/20 06:45:25;;;;;;;12.30;3.58;;;;;;;;;;5023687;28;20056;-73
2022/06/20 06:48:13;;;;;;;9.65;3.25;;;;;;;;;;5021957;28;20045;-73
2022/06/20 06:50:43;;;;;;;12.88;3.65;;;;;;;;;;5029265;28;20045;-73
2022/06/20 06:53:13;;;;;;;10.88;3.30;;;;;;;;;;5013118;28;20033;-72
2022/06/20 06:55:41;;;;;;;12.50;3.40;;;;;;;;;;5027492;28;20049;-73
2022/06/20 06:58:26;;;;;;;11.20;4.03;;;;;;;;;;5028804;28;20056;-73
2022/06/20 07:00:58;;;;;;;11.30;3.47;;;;;;;;;;5013053;28;20045;-73
2022/06/20 07:03:46;;;;;;;15.27;3.95;;;;;;;;;;5030017;28;20384;-73
2022/06/20 07:06:16;;;;;;;10.88;3.13;;;;;;;;;;5030953;28;20065;-72
2022/06/20 07:08:45;;;;;;;9.60;2.80;;;;;;;;;;5029475;28;20393;-73
2022/06/20 07:11:24;;;;;;;8.70;2.85;;;;;;;;;;5029569;28;20042;-73
2022/06/20 07:13:53;;;;;;;9.70;3.03;;;;;;;;;;5020610;28;20052;-73
2022/06/20 07:16:22;;;;;;;11.55;3.10;;;;;;;;;;5024222;28;20045;-73
2022/06/20 07:18:51;;;;;;;10.68;2.92;;;;;;;;;;5026256;28;20037;-73
2022/06/20 07:21:18;;;;;;;9.35;3.00;;;;;;;;;;5023115;28;20503;-73
2022/06/20 07:23:45;;;;;;;9.10;2.85;;;;;;;;;;5029858;28;20077;-74
2022/06/20 07:26:14;;;;;;;9.88;2.45;;;;;;;;;;5031651;28;20034;-73
2022/06/20 07:28:46;;;;;;;11.70;2.58;;;;;;;;;;5028364;28;20048;-73
2022/06/20 07:31:12;;;;;;;;;;;;;;;;;;5010031;28;20045;-73
2022/06/20 07:33:46;;;;;;;9.73;2.75;;;;;;;;;;5022558;28;19967;-73
2022/06/20 07:36:13;;;;;;;9.60;2.63;;;;;;;;;;5024923;28;20053;-72
2022/06/20 07:38:43;;;;;;;10.18;2.75;;;;;;;;;;5023317;28;20041;-73
2022/06/20 07:41:14;;;;;;;7.72;2.45;;;;;;;;;;5023320;28;20507;-74
2022/06/20 07:44:01;;;;;;;8.98;2.85;;;;;;;;;;5024025;28;20056;-73
2022/06/20 07:46:33;;;;;;;8.57;2.50;;;;;;;;;;5025397;28;20395;-73
2022/06/20 07:49:04;;;;;;;7.57;2.50;;;;;;;;;;5023041;28;20042;-73
2022/06/20 07:51:36;;;;;;;10.95;2.72;;;;;;;;;;5024901;28;20044;-73
2022/06/20 07:54:02;;;;;;;7.30;2.50;;;;;;;;;;5026055;28;20179;-73
2022/06/20 07:56:35;;;;;;;8.52;2.90;;;;;;;;;;5024324;28;20542;-73
2022/06/20 07:59:06;;;;;;;10.63;2.53;;;;;;;;;;5027394;28;20037;-73
2022/06/20 08:01:48;;;;;;;10.10;2.63;;;;;;;;;;5019393;28;20527;-73
2022/06/20 08:04:15;;;;;;;6.75;2.45;;;;;;;;;;5004393;28;20442;-73
2022/06/20 08:07:05;;;;;;;13.35;2.88;;;;;;;;;;5025343;28;20045;-75
2022/06/20 08:09:51;;;;;;;7.97;2.50;;;;;;;;;;5012936;28;20088;-73
2022/06/20 08:12:36;;;;;;;9.75;2.42;;;;;;;;;;5018849;28;20049;-73
2022/06/20 08:15:11;;;;;;;9.75;1.92;;;;;;;;;;5021603;28;20558;-73
2022/06/20 08:17:38;;;;;;;5.78;2.10;;;;;;;;;;5022727;28;22589;-73
2022/06/20 08:20:05;;;;;;;11.18;1.90;;;;;;;;;;5022597;28;20120;-72
2022/06/20 08:22:39;;;;;;;6.35;2.00;;;;;;;;;;5023530;28;20640;-71
2022/06/20 08:25:25;;;;;;;6.90;2.25;;;;;;;;;;5018662;28;20487;-72
2022/06/20 08:28:01;;;;;;;7.15;2.40;;;;;;;;;;5018343;28;20534;-72
2022/06/20 08:30:27;;;;;;;6.78;2.20;;;;;;;;;;5018885;28;20048;-73
2022/06/20 08:32:56;;;;;;;7.38;2.40;;;;;;;;;;5024138;28;20571;-73
2022/06/20 08:35:32;;;;;;;10.20;2.53;;;;;;;;;;5023980;28;20571;-73
2022/06/20 08:38:08;;;;;;;11.63;2.90;;;;;;;;;;5037802;28;20154;-73
2022/06/20 08:40:51;;;;;;;11.63;3.00;;;;;;;;;;5024464;28;20521;-74
2022/06/20 08:43:36;;;;;;;8.95;2.60;;;;;;;;;;5026435;28;20380;-72
2022/06/20 08:46:14;;;;;;;10.85;2.88;;;;;;;;;;5020371;28;21596;-73
2022/06/20 08:48:49;;;;;;;9.25;2.53;;;;;;;;;;5007530;28;20110;-72
2022/06/20 08:51:34;;;;;;;6.78;2.53;;;;;;;;;;5025164;28;20479;-72
2022/06/20 08:54:19;;;;;;;8.80;2.70;;;;;;;;;;5024063;28;20137;-72
2022/06/20 08:57:03;;;;;;;8.10;2.38;;;;;;;;;;5022937;28;20747;-72
2022/06/20 08:59:30;;;;;;;7.30;2.65;;;;;;;;;;5005808;28;20404;-72
2022/06/20 09:02:05;;;;;;;10.60;2.17;;;;;;;;;;5008263;28;20037;-72
2022/06/20 09:04:50;;;;;;;13.55;8.75;;;;;;;;;;5026318;28;20457;-73
2022/06/20 09:07:17;;;;;;;19.33;3.25;;;;;;;;;;5024044;28;20057;-73
2022/06/20 09:09:55;;;;;;;5.75;2.00;;;;;;;;;;5025249;28;20041;-72
2022/06/20 09:12:29;;;;;;;10.25;1.90;;;;;;;;;;5025868;28;20403;-72
2022/06/20 09:15:02;;;;;;;6.88;1.75;;;;;;;;;;5022267;28;20037;-72
2022/06/20 09:17:34;;;;;;;5.88;1.55;;;;;;;;;;5024867;28;20119;-73
2022/06/20 09:20:20;;;;;;;8.85;1.60;;;;;;;;;;5026895;28;20037;-72
2022/06/20 09:23:04;;;;;;;5.03;1.50;;;;;;;;;;5023630;28;20052;-72
2022/06/20 09:25:45;;;;;;;6.63;1.50;;;;;;;;;;5025910;28;20033;-72
2022/06/20 09:28:22;;;;;;;4.70;1.52;;;;;;;;;;5024208;28;20045;-72
2022/06/20 09:31:06;;;;;;;5.35;1.60;;;;;;;;;;5024792;28;20099;-72
2022/06/20 09:33:39;;;;;;;3.78;1.40;;;;;;;;;;5023188;28;20029;-72
2022/06/20 09:36:38;;;;;;;7.03;1.65;;;;;;;;;;5009449;28;20045;-71
2022/06/20 09:39:13;;;;;;;3.78;1.40;;;;;;;;;;4997208;28;20045;-72
2022/06/20 09:41:56;;;;;;;3.03;1.23;;;;;;;;;;5006210;28;20462;-73
2022/06/20 09:44:28;;;;;;;5.50;1.60;;;;;;;;;;4997933;28;20065;-72
2022/06/20 09:46:54;;;;;;;;;;;;;;;;;;4996660;28;20043;-73
2022/06/20 09:49:26;;;;;;;25.58;2.40;;;;;;;;;;4995116;28;19928;-73
2022/06/20 09:52:02;;;;;;;15.25;2.55;;;;;;;;;;5011667;28;20064;-73
2022/06/20 09:54:40;;;;;;;4.63;1.70;;;;;;;;;;5025946;28;20068;-73
2022/06/20 09:57:18;;;;;;;7.10;1.63;;;;;;;;;;5027318;28;20133;-73
2022/06/20 09:59:47;;;;;;;6.47;1.92;;;;;;;;;;4996207;28;20079;-72
2022/06/20 10:02:18;;;;;;;7.75;1.63;;;;;;;;;;5023114;28;20128;-72
2022/06/20 10:04:58;;;;;;;9.82;1.90;;;;;;;;;;5024351;28;20099;-71
2022/06/20 10:07:30;;;;;;;4.88;1.63;;;;;;;;;;5025578;28;20053;-71
2022/06/20 10:10:32;;;;;;;6.47;1.77;;;;;;;;;;5028712;28;20052;-72
2022/06/20 10:13:11;;;;;;;5.90;1.80;;;;;;;;;;4980439;28;20069;-73
2022/06/20 10:15:49;;;;;;;4.82;1.40;;;;;;;;;;5012171;28;20061;-72
2022/06/20 10:18:22;;;;;;;5.78;1.50;;;;;;;;;;4992330;28;20038;-72
2022/06/20 10:21:00;;;;;;;8.05;2.03;;;;;;;;;;5017411;28;20078;-72
2022/06/20 10:23:47;;;;;;;7.18;1.67;;;;;;;;;;4997393;28;20128;-72
2022/06/20 10:26:17;;;;;;;8.73;1.60;;;;;;;;;;5010613;28;20088;-73
2022/06/20 10:28:58;;;;;;;5.70;1.75;;;;;;;;;;5033754;28;20073;-73
2022/06/20 10:31:30;;;;;;;8.40;2.13;;;;;;;;;;5031756;28;20056;-73
2022/06/20 10:34:12;;;;;;;7.05;1.85;;;;;;;;;;5035685;28;20042;-72
2022/06/20 10:36:38;;;;;;;;;;;;;;;;;;5033558;28;20041;-72
2022/06/20 10:39:07;;;;;;;7.80;1.60;;;;;;;;;;5033643;28;20170;-74
2022/06/20 10:41:46;;;;;;;4.55;1.50;;;;;;;;;;5034436;28;20506;-73
2022/06/20 10:44:23;;;;;;;6.13;1.70;;;;;;;;;;5032115;28;20383;-73
2022/06/20 10:46:56;;;;;;;6.53;1.77;;;;;;;;;;5035552;28;20037;-73
2022/06/20 10:49:41;;;;;;;24.38;2.65;;;;;;;;;;5033771;28;20048;-73
2022/06/20 10:52:28;;;;;;;7.15;1.75;;;;;;;;;;5032235;28;20037;-73
2022/06/20 10:55:05;;;;;;;13.18;2.28;;;;;;;;;;5030427;28;20073;-72
2022/06/20 10:57:34;;;;;;;4.22;1.40;;;;;;;;;;5031143;28;20041;-72
2022/06/20 11:00:06;;;;;;;5.05;1.58;;;;;;;;;;5013061;28;20048;-73
2022/06/20 11:02:51;;;;;;;5.68;1.67;;;;;;;;;;5033691;28;20041;-73
2022/06/20 11:05:38;;;;;;;4.28;1.42;;;;;;;;;;5034978;28;20668;-73
2022/06/20 11:08:24;;;;;;;5.78;1.70;;;;;;;;;;5032061;28;20071;-73
2022/06/20 11:11:00;;;;;;;5.90;1.10;;;;;;;;;;5034502;28;20099;-73
2022/06/20 11:13:31;;;;;;;3.35;1.05;;;;;;;;;;5033306;28;20450;-73
2022/06/20 11:15:57;;;;;;;3.50;1.25;;;;;;;;;;5034841;28;20029;-73
2022/06/20 11:18:23;;;;;;;3.90;1.52;;;;;;;;;;5033397;28;20128;-73
2022/06/20 11:21:09;;;;;;;4.60;1.60;;;;;;;;;;5032836;28;20129;-73
2022/06/20 11:23:42;;;;;;;6.57;1.50;;;;;;;;;;5032874;28;20069;-73
2022/06/20 11:26:17;;;;;;;4.45;1.23;;;;;;;;;;5036983;28;20048;-73
2022/06/20 11:28:47;;;;;;;7.45;1.40;;;;;;;;;;5019385;28;20045;-73
2022/06/20 11:31:32;;;;;;;5.25;1.58;;;;;;;;;;4994214;28;20033;-73
2022/06/20 11:34:01;;;;;;;6.88;1.52;;;;;;;;;;5006623;28;20292;-73
2022/06/20 11:36:33;;;;;;;7.45;1.65;;;;;;;;;;5013096;28;20045;-73
2022/06/20 11:39:05;;;;;;;7.30;1.77;;;;;;;;;;4997423;28;20150;-73
2022/06/20 11:41:42;;;;;;;5.60;1.95;;;;;;;;;;5029228;28;20085;-73
2022/06/20 11:44:21;;;;;;;8.20;2.03;;;;;;;;;;5027558;28;20572;-73
2022/06/20 11:46:53;;;;;;;5.20;1.60;;;;;;;;;;5021037;28;20037;-73
2022/06/20 11:49:19;;;;;;;;;;;;;;;;;;5038990;28;20041;-73
2022/06/20 11:52:04;;;;;;;3.72;1.40;;;;;;;;;;5035706;28;19917;-73
2022/06/20 11:54:46;;;;;;;5.40;1.50;;;;;;;;;;5041151;28;20087;-72
2022/06/20 11:57:13;;;;;;;;;;;;;;;;;;5028229;28;20045;-72
2022/06/20 11:59:39;;;;;;;6.30;1.67;;;;;;;;;;5025718;28;19923;-72
2022/06/20 12:02:11;;;;;;;7.70;2.33;;;;;;;;;;5025943;28;20045;-73
2022/06/20 12:04:45;;;;;;;5.25;1.85;;;;;;;;;;4993050;28;20091;-73
2022/06/20 12:07:18;;;;;;;6.45;1.80;;;;;;;;;;5026419;28;20041;-73
2022/06/20 12:09:48;;;;;;;5.65;1.80;;;;;;;;;;5027168;28;20045;-73
2022/06/20 12:12:14;;;;;;;7.13;1.73;;;;;;;;;;5023571;28;20034;-73
2022/06/20 12:14:55;;;;;;;4.93;1.70;;;;;;;;;;5030360;28;20099;-73
2022/06/20 12:17:28;;;;;;;5.45;1.70;;;;;;;;;;5023619;28;20053;-72
2022/06/20 12:25:46;;;;;;;4.18;1.77;;;;;;;;;;5046138;28;20037;-72
2022/06/20 12:28:38;;;;;;;7.40;1.80;;;;;;;;;;5034440;28;20432;-72
2022/06/20 12:31:16;;;;;;;7.03;1.75;;;;;;;;;;5023696;28;20045;-73
2022/06/20 12:33:48;;;;;;;8.27;1.67;;;;;;;;;;5030754;28;20095;-72
2022/06/20 12:36:23;;;;;;;3.95;1.38;;;;;;;;;;5020681;28;20033;-71
2022/06/20 12:39:09;;;;;;;6.72;1.80;;;;;;;;;;5028946;28;20033;-73
2022/06/20 12:41:38;;;;;;;3.75;1.45;;;;;;;;;;5021686;28;20037;-73
2022/06/20 12:44:14;;;;;;;4.50;1.40;;;;;;;;;;5028349;28;20136;-72
2022/06/20 12:46:50;;;;;;;4.53;1.27;;;;;;;;;;5030597;28;20045;-73
2022/06/20 12:49:39;;;;;;;6.05;1.60;;;;;;;;;;5029279;28;20056;-73
2022/06/20 12:52:22;;;;;;;9.30;1.77;;;;;;;;;;5027550;28;20051;-73
2022/06/20 12:54:51;;;;;;;5.50;1.38;;;;;;;;;;5027708;28;20057;-73
2022/06/20 12:57:42;;;;;;;5.93;1.60;;;;;;;;;;5019187;28;20038;-73
2022/06/20 13:00:19;;;;;;;9.57;1.70;;;;;;;;;;5013933;28;20065;-73
2022/06/20 13:02:45;;;;;;;5.20;1.75;;;;;;;;;;5018509;28;20045;-73
2022/06/20 13:05:20;;;;;;;7.32;1.70;;;;;;;;;;5001718;28;20507;-73
2022/06/20 13:07:49;;;;;;;5.97;1.50;;;;;;;;;;5035980;28;20041;-73
2022/06/20 13:10:33;;;;;;;5.82;1.40;;;;;;;;;;5026743;28;20426;-73
2022/06/20 13:13:19;;;;;;;18.67;2.00;;;;;;;;;;5032635;28;20373;-73
2022/06/20 13:15:52;;;;;;;5.95;1.40;;;;;;;;;;5033598;28;20113;-73
2022/06/20 13:18:33;;;;;;;5.35;1.40;;;;;;;;;;5030376;28;20444;-73
2022/06/20 13:20:59;;;;;;;3.97;1.40;;;;;;;;;;5031795;28;20488;-73
2022/06/20 13:23:43;;;;;;;6.15;1.35;;;;;;;;;;5031048;28;20038;-73
2022/06/20 13:26:16;;;;;;;7.72;1.67;;;;;;;;;;5034391;28;20041;-73
2022/06/20 13:28:53;;;;;;;3.95;1.40;;;;;;;;;;5030067;28;20045;-73
2022/06/20 13:31:27;;;;;;;6.97;1.50;;;;;;;;;;5041662;28;20487;-73
2022/06/20 13:33:59;;;;;;;4.60;1.40;;;;;;;;;;5024973;28;20042;-73
2022/06/20 13:36:25;;;;;;;;;;;;;;;;;;5031128;28;20431;-73
2022/06/20 13:38:58;;;;;;;3.72;1.13;;;;;;;;;;5032388;28;19920;-73
2022/06/20 13:41:23;;;;;;;;;;;;;;;;;;5030970;28;20431;-73
2022/06/20 13:44:15;;;;;;;4.35;1.65;;;;;;;;;;5027281;28;20331;-73
2022/06/20 13:46:54;;;;;;;4.03;1.40;;;;;;;;;;5014108;28;20455;-77
2022/06/20 13:49:23;;;;;;;5.93;1.63;;;;;;;;;;5017919;28;20458;-78
2022/06/20 13:51:54;;;;;;;6.25;1.60;;;;;;;;;;5031992;28;20562;-78
2022/06/20 13:54:24;;;;;;;5.05;1.42;;;;;;;;;;5015697;28;20037;-78
2022/06/20 13:56:53;;;;;;;3.45;1.50;;;;;;;;;;5034132;28;20519;-78
2022/06/20 13:59:29;;;;;;;5.63;1.67;;;;;;;;;;5014504;28;20136;-78
2022/06/20 14:01:58;;;;;;;2.72;1.50;;;;;;;;;;5032586;28;20087;-78
2022/06/20 14:04:25;;;;;;;3.05;1.50;;;;;;;;;;5036791;28;20048;-78
2022/06/20 14:06:56;;;;;;;4.75;1.20;;;;;;;;;;5036003;28;20075;-78
2022/06/20 14:09:28;;;;;;;8.43;1.50;;;;;;;;;;5034414;28;20038;-78
2022/06/20 14:11:59;;;;;;;3.45;1.40;;;;;;;;;;5029414;28;20067;-78
2022/06/20 14:14:28;;;;;;;5.82;1.70;;;;;;;;;;5031726;28;20064;-78
2022/06/20 14:16:56;;;;;;;4.47;1.40;;;;;;;;;;5027654;28;20051;-77
2022/06/20 14:19:25;;;;;;;5.22;1.60;;;;;;;;;;5034160;28;20685;-78
2022/06/20 14:21:54;;;;;;;5.05;1.50;;;;;;;;;;5030291;28;20099;-77
2022/06/20 14:24:31;;;;;;;4.03;1.55;;;;;;;;;;5028456;28;20042;-77
2022/06/20 14:26:57;;;;;;;6.35;1.45;;;;;;;;;;5030685;28;20122;-78
2022/06/20 14:29:25;;;;;;;4.28;1.58;;;;;;;;;;5028314;28;20500;-78
2022/06/20 14:31:51;;;;;;;7.65;1.70;;;;;;;;;;5026905;28;20056;-78
2022/06/20 14:34:22;;;;;;;7.80;1.63;;;;;;;;;;5029927;28;20042;-78
2022/06/20 14:37:07;;;;;;;4.43;1.33;;;;;;;;;;5033630;28;20125;-78
2022/06/20 14:39:40;;;;;;;4.40;1.45;;;;;;;;;;5032803;28;20038;-78
2022/06/20 14:42:12;;;;;;;11.73;1.70;;;;;;;;;;5034010;28;20048;-78
2022/06/20 14:44:45;;;;;;;3.70;1.50;;;;;;;;;;5034601;28;20041;-78
2022/06/20 14:47:26;;;;;;;5.78;1.55;;;;;;;;;;5035303;28;20037;-78
2022/06/20 14:49:57;;;;;;;7.32;1.70;;;;;;;;;;5030243;28;20034;-78
2022/06/20 14:52:36;;;;;;;3.90;1.25;;;;;;;;;;5033826;28;20168;-78
2022/06/20 14:55:05;;;;;;;4.55;1.40;;;;;;;;;;5033530;28;20040;-78
2022/06/20 14:57:34;;;;;;;3.67;1.40;;;;;;;;;;5017398;28;20052;-78
2022/06/20 15:00:00;;;;;;;3.15;1.38;;;;;;;;;;5034251;28;20041;-79
2022/06/20 15:02:30;;;;;;;6.40;1.35;;;;;;;;;;5034653;28;20045;-78
2022/06/20 15:04:59;;;;;;;5.30;1.77;;;;;;;;;;5033601;28;20055;-79
2022/06/20 15:07:43;;;;;;;2.90;1.38;;;;;;;;;;5018108;28;20075;-79
2022/06/20 15:10:15;;;;;;;5.25;1.40;;;;;;;;;;5033608;28;20041;-78
2022/06/20 15:12:43;;;;;;;4.80;1.23;;;;;;;;;;5034903;28;20037;-78
2022/06/20 15:15:13;;;;;;;5.75;1.50;;;;;;;;;;5028477;28;20033;-79
2022/06/20 15:17:44;;;;;;;22.35;17.52;;;;;;;;;;5017784;28;20136;-79
2022/06/20 15:20:19;;;;;;;3.15;1.35;;;;;;;;;;5029803;28;20444;-79
2022/06/20 15:22:45;;;;;;;7.78;1.52;;;;;;;;;;5032484;28;20049;-79
2022/06/20 15:25:42;;;;;;;2.03;1.08;;;;;;;;;;5006732;28;20060;-79
2022/06/20 15:28:13;;;;;;;2.38;1.20;;;;;;;;;;5034937;28;20053;-80